createdAt,value
2022-11-08T11:50:35.036Z,27.27
2022-11-08T11:53:07.133Z,26.80
2022-11-08T11:55:49.185Z,24.37
2022-11-08T11:58:32.886Z,16.67
2022-11-08T12:03:55.002Z,22.30
2022-11-08T12:06:35.710Z,25.70
2022-11-08T12:09:16.020Z,20.93
2022-11-08T12:11:54.767Z,18.83
2022-11-08T12:14:46.222Z,29.37
2022-11-08T12:17:37.293Z,18.47
2022-11-08T12:20:27.755Z,22.50
2022-11-08T12:23:19.025Z,17.20
2022-11-08T12:25:54.449Z,15.30
2022-11-08T12:28:42.182Z,18.83
2022-11-08T12:31:26.678Z,19.00
2022-11-08T12:34:21.608Z,24.43
2022-11-08T12:37:03.245Z,14.33
2022-11-08T12:39:37.543Z,13.37
2022-11-08T12:42:22.830Z,28.13
2022-11-08T12:45:17.772Z,23.73
2022-11-08T12:47:55.332Z,29.67
2022-11-08T12:50:30.391Z,11.23
2022-11-08T12:53:24.161Z,23.57
2022-11-08T12:55:55.984Z,18.93
2022-11-08T12:58:34.540Z,14.23
2022-11-08T13:01:23.522Z,27.47
2022-11-08T13:04:15.856Z,30.10
2022-11-08T13:06:50.442Z,19.50
2022-11-08T13:09:30.009Z,55.70
2022-11-08T13:12:08.493Z,27.33
2022-11-08T13:14:41.327Z,21.17
2022-11-08T13:17:20.632Z,21.23
2022-11-08T13:20:05.349Z,25.00
2022-11-08T13:23:00.528Z,15.10
2022-11-08T13:25:50.504Z,27.90
2022-11-08T13:28:40.675Z,22.33
2022-11-08T13:31:31.636Z,14.23
2022-11-08T13:34:24.017Z,21.37
2022-11-08T13:37:09.874Z,39.73
2022-11-08T13:40:01.843Z,33.73
2022-11-08T13:42:40.629Z,20.10
2022-11-08T13:45:25.815Z,28.23
2022-11-08T13:48:01.998Z,78.87
2022-11-08T13:50:51.889Z,37.27
2022-11-08T13:53:54.755Z,41.67
2022-11-08T13:56:50.350Z,25.40
2022-11-08T13:59:57.805Z,20.20
2022-11-08T14:02:40.358Z,19.20
2022-11-08T14:05:32.952Z,26.40
2022-11-08T14:08:24.595Z,30.27
2022-11-08T14:11:28.677Z,21.60
2022-11-08T14:14:31.173Z,31.37
2022-11-08T14:17:24.103Z,54.43
2022-11-08T14:19:53.876Z,35.87
2022-11-08T14:22:25.223Z,31.43
2022-11-08T14:24:55.754Z,25.57
2022-11-08T14:27:35.697Z,33.17
2022-11-08T14:30:14.949Z,28.80
2022-11-08T14:33:18.390Z,37.07
2022-11-08T14:35:56.119Z,37.63
2022-11-08T14:38:25.469Z,39.03
2022-11-08T14:40:57.184Z,67.63
2022-11-08T14:43:26.904Z,47.43
2022-11-08T14:45:59.211Z,34.60
2022-11-08T14:48:31.205Z,33.60
2022-11-08T14:51:00.896Z,25.30
2022-11-08T14:53:31.725Z,28.63
2022-11-08T14:56:09.601Z,30.97
2022-11-08T14:58:57.889Z,25.47
2022-11-08T15:01:29.407Z,32.87
2022-11-08T15:04:00.311Z,30.93
2022-11-08T15:06:34.056Z,28.93
2022-11-08T15:09:04.395Z,41.13
2022-11-08T15:11:35.793Z,36.20
2022-11-08T15:14:08.324Z,59.60
2022-11-08T15:16:44.766Z,43.27
2022-11-08T15:19:31.340Z,48.53
2022-11-08T15:22:04.642Z,58.20
2022-11-08T15:24:39.186Z,54.13
2022-11-08T15:27:16.942Z,42.83
2022-11-08T15:30:00.645Z,35.80
2022-11-08T15:32:37.639Z,41.33
2022-11-08T15:35:08.342Z,47.73
2022-11-08T15:37:42.072Z,37.50
2022-11-08T15:40:20.251Z,56.67
2022-11-08T15:42:51.227Z,53.30
2022-11-08T15:45:38.879Z,49.27
2022-11-08T15:48:23.471Z,78.77
2022-11-08T15:50:52.876Z,65.53
2022-11-08T15:53:22.655Z,50.00
2022-11-08T15:55:54.631Z,55.13
2022-11-08T15:58:28.533Z,51.27
2022-11-08T16:00:59.195Z,55.60
2022-11-08T16:03:31.279Z,54.97
2022-11-08T16:06:00.900Z,67.37
2022-11-08T16:08:30.057Z,57.47
2022-11-08T16:11:01.812Z,46.73
2022-11-08T16:13:33.170Z,47.87
2022-11-08T16:16:02.651Z,40.93
2022-11-08T16:18:34.498Z,42.17
2022-11-08T16:21:03.869Z,40.93
2022-11-08T16:23:32.709Z,42.30
2022-11-08T16:26:03.376Z,51.23
2022-11-08T16:28:35.129Z,62.30
2022-11-08T16:31:05.552Z,57.30
2022-11-08T16:33:36.919Z,54.03
2022-11-08T16:36:15.894Z,54.07
2022-11-08T16:38:49.229Z,52.83
2022-11-08T16:41:18.994Z,55.17
2022-11-08T16:43:48.225Z,54.13
2022-11-08T16:46:18.028Z,67.07
2022-11-08T16:48:50.967Z,74.17
2022-11-08T16:51:38.103Z,87.10
2022-11-08T16:54:19.385Z,84.43
2022-11-08T16:56:48.413Z,74.93
2022-11-08T16:59:26.186Z,57.33
2022-11-08T17:01:55.975Z,62.10
2022-11-08T17:04:26.701Z,64.33
2022-11-08T17:06:55.757Z,69.13
2022-11-08T17:09:26.062Z,65.77
2022-11-08T17:11:56.843Z,77.50
2022-11-08T17:14:26.305Z,73.67
2022-11-08T17:16:55.233Z,82.13
2022-11-08T17:19:25.790Z,94.33
2022-11-08T17:21:54.732Z,79.27
2022-11-08T17:24:23.846Z,73.27
2022-11-08T17:26:53.834Z,73.83
2022-11-08T17:29:22.768Z,70.63
2022-11-08T17:31:53.197Z,74.63
2022-11-08T17:34:22.150Z,75.10
2022-11-08T17:36:53.492Z,58.33
2022-11-08T17:39:29.103Z,57.87
2022-11-08T17:42:16.805Z,47.73
2022-11-08T17:44:45.685Z,58.53
2022-11-08T17:47:14.764Z,56.67
2022-11-08T17:49:44.220Z,57.27
